Time;durP1;ratioP1;P1;durP2;ratioP2;P2;SDS_P1;SDS_P2;PMS_P1;PMS_P2;Temp;Humidity;BMP_temperature;BMP_pressure;BME280_temperature;BME280_humidity;BME280_pressure;Samples;Min_cycle;Max_cycle;Signal;HPM_P1;HPM_P2
2021/11/07 00:04:45;;;;;;;14.10;8.65;;;;;;;7.45;62.85;101051.47;4966183;28;20035;-66
2021/11/07 00:07:22;;;;;;;12.20;8.25;;;;;;;7.72;61.95;101056.03;4964485;28;20085;-68
2021/11/07 00:12:16;;;;;;;13.80;8.57;;;;;;;6.32;66.55;101034.88;4964217;28;20042;-67
2021/11/07 00:14:47;;;;;;;13.00;7.50;;;;;;;7.06;63.85;101048.91;4963817;28;20130;-69
2021/11/07 00:17:14;;;;;;;12.15;8.02;;;;;;;7.79;62.10;101030.72;4964425;28;20060;-69
2021/11/07 00:19:44;;;;;;;13.15;8.80;;;;;;;7.41;63.34;101029.03;4963705;28;20039;-68
2021/11/07 00:22:31;;;;;;;11.02;7.25;;;;;;;7.36;63.82;101030.91;4963494;28;20059;-68
2021/11/07 00:25:15;;;;;;;9.30;6.45;;;;;;;7.39;63.05;101052.47;4978113;28;20711;-69
2021/11/07 00:27:49;;;;;;;9.95;6.50;;;;;;;7.46;63.29;101027.19;4962966;28;20047;-67
2021/11/07 00:38:06;;;;;;;9.40;5.15;;;;;;;7.06;64.08;101012.53;4962099;28;20053;-69
2021/11/07 00:44:12;;;;;;;7.00;4.70;;;;;;;6.91;65.83;101004.19;4929446;28;20368;-67
2021/11/07 00:46:24;;;;;;;6.28;3.78;;;;;;;6.98;65.63;101004.06;4958063;28;20065;-67
2021/11/07 00:48:57;;;;;;;5.25;3.55;;;;;;;7.64;63.17;101003.31;4961406;28;20045;-68
2021/11/07 00:56:23;;;;;;;7.65;3.90;;;;;;;7.96;62.22;100986.03;4963047;28;20126;-68
2021/11/07 01:01:34;;;;;;;8.05;2.25;;;;;;;7.25;64.32;100976.56;4961949;28;20176;-70
2021/11/07 01:04:02;;;;;;;4.70;2.50;;;;;;;7.93;62.88;100971.31;4953460;28;20045;-67
2021/11/07 01:06:28;;;;;;;5.53;2.22;;;;;;;7.83;63.21;100971.66;4961993;28;20043;-67
2021/11/07 01:08:54;;;;;;;5.15;1.58;;;;;;;8.03;62.10;100977.16;4963010;28;20043;-67
2021/11/07 01:11:20;;;;;;;7.70;2.65;;;;;;;8.23;61.38;100968.78;4963211;28;20042;-67
2021/11/07 01:13:45;;;;;;;4.07;1.58;;;;;;;8.49;60.71;100956.72;4963416;28;20174;-68
2021/11/07 01:16:11;;;;;;;4.47;1.55;;;;;;;7.97;62.22;100961.69;4963219;28;20030;-67
2021/11/07 01:18:36;;;;;;;8.20;2.38;;;;;;;8.18;61.61;100959.38;4962829;28;20323;-67
2021/11/07 01:21:02;;;;;;;4.88;1.77;;;;;;;8.30;61.12;100959.03;4962365;28;20027;-66
2021/11/07 01:23:40;;;;;;;5.20;2.20;;;;;;;8.17;61.44;100958.53;4961979;28;20082;-66
2021/11/07 01:26:17;;;;;;;5.68;1.80;;;;;;;8.17;61.40;100965.50;4964120;28;20130;-67
2021/11/07 01:28:50;;;;;;;3.65;1.88;;;;;;;7.81;62.59;100950.00;4962708;28;20094;-68
2021/11/07 01:31:16;;;;;;;4.80;2.63;;;;;;;7.88;62.50;100951.53;4964305;28;20070;-68
2021/11/07 01:33:42;;;;;;;3.25;1.80;;;;;;;8.12;61.76;100945.66;4962777;28;20530;-70
2021/11/07 01:39:12;;;;;;;4.35;1.08;;;;;;;8.43;60.55;100949.13;4963125;28;20035;-68
2021/11/07 01:41:32;;;;;;;4.70;1.30;;;;;;;8.41;60.95;100951.78;4961721;28;20055;-68
2021/11/07 01:43:59;;;;;;;4.55;1.23;;;;;;;8.04;61.59;100972.78;4962288;28;20068;-64
2021/11/07 01:46:31;;;;;;;10.07;1.65;;;;;;;8.27;61.17;100959.13;4961539;28;20411;-64
2021/11/07 01:49:06;;;;;;;4.70;0.63;;;;;;;8.47;60.88;100954.19;4961407;28;20085;-64
2021/11/07 01:51:33;;;;;;;8.23;1.77;;;;;;;8.31;60.60;100955.53;4961283;28;20340;-65
2021/11/07 01:54:10;;;;;;;11.95;2.38;;;;;;;7.81;61.75;100961.25;4962262;28;20098;-64
2021/11/07 01:56:35;;;;;;;5.53;0.93;;;;;;;8.36;59.95;100954.50;4959671;28;20034;-66
2021/11/07 01:59:01;;;;;;;10.82;0.77;;;;;;;8.67;58.61;100952.72;4965261;28;20516;-64
2021/11/07 02:01:26;;;;;;;13.15;1.00;;;;;;;8.48;59.10;100948.06;4964231;28;20592;-64
2021/11/07 02:03:53;;;;;;;6.50;0.65;;;;;;;8.27;59.70;100948.69;4964245;28;20544;-64
2021/11/07 02:06:19;;;;;;;6.40;1.40;;;;;;;8.05;59.92;100949.34;4965506;28;20121;-64
2021/11/07 02:08:45;;;;;;;8.13;1.23;;;;;;;8.04;59.80;100942.41;4964630;28;20039;-65
2021/11/07 02:11:11;;;;;;;9.55;0.95;;;;;;;8.44;58.17;100940.41;4946957;28;20046;-64
2021/11/07 02:13:37;;;;;;;12.93;1.27;;;;;;;8.25;58.01;100945.28;4963401;28;20038;-64
2021/11/07 02:16:03;;;;;;;9.02;1.50;;;;;;;7.84;58.39;100931.69;4966613;28;20105;-65
2021/11/07 02:18:29;;;;;;;10.07;1.00;;;;;;;8.30;56.98;100927.78;4963433;28;20042;-65
2021/11/07 02:20:55;;;;;;;5.68;1.10;;;;;;;8.17;57.07;100926.44;4964112;28;20027;-66
2021/11/07 02:23:23;;;;;;;17.00;2.20;;;;;;;8.15;56.77;100927.31;4963121;28;20035;-67
2021/11/07 02:25:50;;;;;;;9.10;0.85;;;;;;;7.92;57.48;100920.19;4966960;28;20117;-66
2021/11/07 02:28:29;;;;;;;9.75;1.67;;;;;;;8.14;56.29;100925.63;4986498;28;20400;-65
2021/11/07 02:30:55;;;;;;;9.73;1.35;;;;;;;7.95;56.80;100917.47;4965765;28;20488;-65
2021/11/07 02:33:20;;;;;;;13.07;2.47;;;;;;;7.97;56.94;100922.66;4963169;28;20054;-65
2021/11/07 02:35:46;;;;;;;8.55;1.60;;;;;;;8.23;55.77;100921.91;4966718;28;20031;-65
2021/11/07 02:38:12;;;;;;;16.25;2.30;;;;;;;7.91;56.71;100915.88;4964750;28;20046;-67
2021/11/07 02:40:37;;;;;;;18.75;1.40;;;;;;;7.88;57.01;100917.72;4966283;28;20286;-67
2021/11/07 02:43:03;;;;;;;8.52;1.50;;;;;;;7.71;57.80;100913.84;4964935;28;20050;-67
2021/11/07 02:45:29;;;;;;;18.45;1.80;;;;;;;7.62;57.82;100905.41;4965814;28;20108;-67
2021/11/07 02:47:56;;;;;;;13.77;1.92;;;;;;;8.12;56.26;100896.19;4963639;28;20358;-67
2021/11/07 02:50:21;;;;;;;13.40;2.10;;;;;;;7.74;57.18;100890.34;4965627;28;20089;-66
2021/11/07 02:52:48;;;;;;;5.22;1.13;;;;;;;8.25;55.88;100890.59;4965606;28;20042;-66
2021/11/07 02:55:15;;;;;;;16.15;1.75;;;;;;;7.76;57.35;100894.63;4963946;28;20038;-66
2021/11/07 02:57:41;;;;;;;14.10;1.48;;;;;;;7.59;57.59;100893.34;4963613;28;20065;-67
2021/11/07 03:00:10;;;;;;;15.80;1.67;;;;;;;8.04;55.88;100895.56;4965489;28;20070;-67
2021/11/07 03:02:36;;;;;;;17.15;1.42;;;;;;;8.29;55.19;100894.81;4964463;28;20047;-66
2021/11/07 03:05:07;;;;;;;15.32;1.55;;;;;;;7.71;55.96;100884.34;4956717;28;20066;-66
2021/11/07 03:07:33;;;;;;;10.35;1.38;;;;;;;7.94;55.75;100892.38;4963114;28;20054;-66
2021/11/07 03:09:59;;;;;;;15.10;1.35;;;;;;;8.14;54.77;100885.75;4964368;28;20042;-66
2021/11/07 03:12:25;;;;;;;13.10;1.80;;;;;;;7.90;55.85;100900.31;4963025;28;20050;-67
2021/11/07 03:14:52;;;;;;;17.20;0.90;;;;;;;8.11;55.38;100902.31;4964723;28;20564;-65
2021/11/07 03:17:24;;;;;;;9.63;1.42;;;;;;;7.79;56.40;100902.38;4964306;28;20101;-67
2021/11/07 03:19:50;;;;;;;13.68;1.45;;;;;;;8.13;55.16;100890.06;4964374;28;20060;-67
2021/11/07 03:22:19;;;;;;;9.57;1.58;;;;;;;7.71;56.65;100892.16;4969735;28;20459;-66
2021/11/07 03:24:45;;;;;;;17.02;2.88;;;;;;;7.84;56.01;100893.50;4965193;28;20492;-67
2021/11/07 03:27:18;;;;;;;18.75;2.15;;;;;;;7.81;56.25;100896.22;4964395;28;20050;-70
2021/11/07 03:29:48;;;;;;;11.60;2.38;;;;;;;7.88;55.75;100889.09;4965406;28;20031;-67
2021/11/07 03:32:23;;;;;;;13.50;1.55;;;;;;;7.35;56.83;100905.22;4961582;28;20062;-65
2021/11/07 03:34:53;;;;;;;21.38;1.85;;;;;;;7.80;55.63;100891.03;4968126;28;20038;-64
2021/11/07 03:37:28;;;;;;;21.00;1.45;;;;;;;7.73;55.91;100901.66;4980788;28;20070;-64
2021/11/07 03:39:57;;;;;;;22.65;1.48;;;;;;;7.49;55.72;100897.09;4981680;28;20031;-65
2021/11/07 03:42:24;;;;;;;13.50;2.45;;;;;;;7.74;55.11;100897.28;4982366;28;20116;-65
2021/11/07 03:44:50;;;;;;;13.35;1.58;;;;;;;7.52;55.31;100892.63;4981188;28;20414;-66
2021/11/07 03:47:16;;;;;;;11.93;1.30;;;;;;;7.41;55.79;100880.81;4982351;28;20050;-64
2021/11/07 03:49:42;;;;;;;22.23;2.63;;;;;;;7.62;55.03;100888.06;4981471;28;20122;-65
2021/11/07 03:52:10;;;;;;;13.48;1.80;;;;;;;7.79;54.57;100878.94;4964146;28;20138;-65
2021/11/07 03:54:37;;;;;;;16.48;1.13;;;;;;;8.11;53.75;100881.47;4964898;28;20042;-65
2021/11/07 03:57:03;;;;;;;16.95;1.58;;;;;;;7.51;54.65;100880.53;4963112;28;20030;-65
2021/11/07 03:59:30;;;;;;;17.85;1.63;;;;;;;7.72;54.64;100879.09;4962915;28;20038;-65
2021/11/07 04:01:56;;;;;;;11.77;1.52;;;;;;;7.80;54.12;100886.72;4964959;28;20034;-65
2021/11/07 04:04:22;;;;;;;14.63;2.15;;;;;;;7.80;54.34;100878.03;4962883;28;20073;-67
2021/11/07 04:06:47;;;;;;;15.55;1.60;;;;;;;8.12;53.32;100872.75;4963354;28;20464;-66
2021/11/07 04:09:13;;;;;;;17.02;2.47;;;;;;;7.64;54.31;100881.06;4964025;28;20062;-67
2021/11/07 04:11:40;;;;;;;11.52;1.17;;;;;;;7.94;53.24;100878.50;4963854;28;20058;-66
2021/11/07 04:14:06;;;;;;;14.93;0.90;;;;;;;8.40;52.22;100873.66;4978302;28;20651;-66
2021/11/07 04:16:33;;;;;;;19.83;2.30;;;;;;;8.26;52.49;100874.09;4962951;28;20039;-66
2021/11/07 04:18:59;;;;;;;16.45;2.00;;;;;;;8.10;52.70;100879.75;4962988;28;20065;-65
2021/11/07 04:21:25;;;;;;;19.08;2.90;;;;;;;8.48;51.75;100880.34;4963516;28;20047;-65
2021/11/07 04:23:51;;;;;;;21.25;2.22;;;;;;;8.46;51.78;100881.31;4963258;28;20393;-66
2021/11/07 04:26:17;;;;;;;21.25;1.63;;;;;;;8.26;52.28;100884.50;4964721;28;20041;-68
2021/11/07 04:28:43;;;;;;;15.85;1.75;;;;;;;8.28;52.13;100882.72;4963070;28;20516;-65
2021/11/07 04:31:09;;;;;;;13.18;1.73;;;;;;;8.14;52.38;100876.16;4962856;28;20069;-65
2021/11/07 04:33:34;;;;;;;13.13;1.92;;;;;;;8.13;52.58;100869.25;4961934;28;20058;-66
2021/11/07 04:36:00;;;;;;;17.65;1.83;;;;;;;8.22;52.62;100873.31;4964170;28;20038;-65
2021/11/07 04:38:27;;;;;;;21.88;2.15;;;;;;;8.40;52.10;100874.50;4962501;28;20053;-65
2021/11/07 04:40:54;;;;;;;21.88;2.40;;;;;;;8.17;52.24;100874.38;4964552;28;20038;-66
2021/11/07 04:43:20;;;;;;;15.25;1.77;;;;;;;8.34;51.83;100878.19;4962758;28;20475;-65
2021/11/07 04:45:45;;;;;;;15.93;2.45;;;;;;;8.19;52.38;100877.78;4964840;28;20034;-65
2021/11/07 04:48:11;;;;;;;10.45;1.60;;;;;;;7.85;52.99;100865.78;4960963;28;20047;-65
2021/11/07 04:50:37;;;;;;;10.43;1.73;;;;;;;7.41;53.40;100862.63;4964180;28;20559;-65
2021/11/07 04:53:08;;;;;;;15.25;1.30;;;;;;;7.93;52.61;100864.63;4962477;28;20039;-65
2021/11/07 04:55:36;;;;;;;17.63;1.88;;;;;;;8.02;51.96;100865.25;4964111;28;20522;-65
2021/11/07 04:58:03;;;;;;;26.48;2.30;;;;;;;7.55;52.53;100870.91;4962140;28;20042;-65
2021/11/07 05:00:31;;;;;;;10.40;1.42;;;;;;;7.82;51.55;100869.28;4964268;28;20359;-65
2021/11/07 05:02:57;;;;;;;16.40;2.00;;;;;;;7.47;51.99;100863.31;4960814;28;20723;-65
2021/11/07 05:05:23;;;;;;;16.05;2.25;;;;;;;7.68;51.61;100864.47;4963656;28;20046;-65
2021/11/07 05:07:48;;;;;;;19.40;1.70;;;;;;;7.32;52.17;100859.34;4962965;28;20047;-64
2021/11/07 05:10:14;;;;;;;17.92;1.08;;;;;;;7.63;51.87;100863.75;4963168;28;20219;-65
2021/11/07 05:12:40;;;;;;;11.45;1.38;;;;;;;7.93;51.17;100866.38;4962595;28;20047;-66
2021/11/07 05:15:06;;;;;;;19.27;1.92;;;;;;;7.64;51.44;100868.06;4962697;28;20046;-65
2021/11/07 05:17:32;;;;;;;15.85;1.60;;;;;;;7.73;51.75;100880.84;4961874;28;20050;-66
2021/11/07 05:19:57;;;;;;;7.93;1.38;;;;;;;7.78;51.91;100874.63;4962373;28;20792;-66
2021/11/07 05:22:23;;;;;;;18.05;2.28;;;;;;;7.91;52.04;100879.47;4963387;28;20129;-68
2021/11/07 05:24:48;;;;;;;14.95;1.90;;;;;;;8.00;51.90;100888.72;4964449;28;20030;-68
2021/11/07 05:27:15;;;;;;;20.70;1.95;;;;;;;7.47;53.78;100878.06;4963635;28;20506;-67
2021/11/07 05:29:41;;;;;;;19.33;2.30;;;;;;;7.33;54.52;100868.88;4965099;28;20496;-67
2021/11/07 05:32:07;;;;;;;18.05;1.88;;;;;;;6.69;56.07;100879.13;4966446;28;20642;-67
2021/11/07 05:34:33;;;;;;;25.80;1.98;;;;;;;7.24;54.89;100874.28;4966451;28;20046;-67
2021/11/07 05:36:59;;;;;;;16.67;2.60;;;;;;;7.74;53.72;100874.72;4967109;28;20030;-66
2021/11/07 05:39:24;;;;;;;23.30;2.22;;;;;;;7.53;54.25;100878.75;4967931;28;20054;-67
2021/11/07 05:41:50;;;;;;;18.02;3.10;;;;;;;6.75;55.72;100875.53;4965826;28;20476;-66
2021/11/07 05:44:16;;;;;;;18.77;1.50;;;;;;;7.31;54.17;100873.25;4982625;28;20113;-67
2021/11/07 05:46:43;;;;;;;23.60;2.33;;;;;;;6.91;54.57;100874.28;4964928;28;20034;-66
2021/11/07 05:49:08;;;;;;;11.95;0.88;;;;;;;6.85;54.49;100868.38;4966790;28;20054;-66
2021/11/07 05:51:36;;;;;;;18.65;3.35;;;;;;;6.70;54.17;100874.78;4966450;28;20042;-68
2021/11/07 05:54:02;;;;;;;16.55;1.40;;;;;;;7.24;52.17;100876.88;4966330;28;20053;-68
2021/11/07 05:56:28;;;;;;;25.08;2.22;;;;;;;7.03;52.57;100877.47;4980943;28;20125;-69
2021/11/07 05:58:53;;;;;;;7.05;1.27;;;;;;;7.39;51.96;100890.41;4965305;28;20108;-68
2021/11/07 06:01:19;;;;;;;21.48;2.45;;;;;;;7.18;52.54;100891.81;4965883;28;20039;-69
2021/11/07 06:03:45;;;;;;;19.60;2.58;;;;;;;7.33;51.97;100888.81;4965838;28;20047;-68
2021/11/07 06:06:12;;;;;;;9.95;1.00;;;;;;;7.43;51.39;100887.69;4982079;28;20454;-67
2021/11/07 06:08:37;;;;;;;8.70;1.15;;;;;;;7.29;51.87;100903.66;4964788;28;20085;-67
2021/11/07 06:11:03;;;;;;;12.45;0.90;;;;;;;7.43;51.65;100892.88;4965890;28;21098;-68
2021/11/07 06:13:28;;;;;;;17.10;0.98;;;;;;;6.99;52.73;100886.22;4963254;28;20733;-68
2021/11/07 06:15:54;;;;;;;14.80;1.17;;;;;;;6.96;52.57;100897.56;4966404;28;20030;-68
2021/11/07 06:18:19;;;;;;;17.88;1.38;;;;;;;7.38;51.91;100897.34;4964221;28;20500;-67
2021/11/07 06:20:45;;;;;;;14.32;2.17;;;;;;;7.26;52.34;100898.50;4967456;28;20023;-67
2021/11/07 06:23:11;;;;;;;16.02;1.92;;;;;;;7.27;51.94;100907.19;4964390;28;20050;-67
2021/11/07 06:25:37;;;;;;;17.98;1.38;;;;;;;7.17;52.16;100905.69;4965352;28;20054;-67
2021/11/07 06:28:05;;;;;;;8.90;0.73;;;;;;;7.18;51.77;100907.41;4962005;28;20449;-68
2021/11/07 06:30:31;;;;;;;21.85;1.50;;;;;;;7.28;51.51;100895.88;4980129;28;20035;-68
2021/11/07 06:32:57;;;;;;;18.63;3.03;;;;;;;6.82;51.98;100895.28;4964773;28;20515;-68
2021/11/07 06:35:22;;;;;;;11.30;1.45;;;;;;;6.74;51.68;100897.22;4966257;28;20094;-64
2021/11/07 06:37:49;;;;;;;14.25;1.98;;;;;;;6.71;51.79;100897.28;4963947;28;20412;-63
2021/11/07 06:40:14;;;;;;;16.45;1.38;;;;;;;7.01;50.94;100898.28;4965965;28;20277;-66
2021/11/07 06:42:40;;;;;;;9.23;1.55;;;;;;;6.95;51.00;100900.16;4963291;28;20419;-65
2021/11/07 06:45:07;;;;;;;9.45;1.33;;;;;;;6.77;51.53;100891.94;4965669;28;20073;-63
2021/11/07 06:47:33;;;;;;;9.98;1.85;;;;;;;7.09;50.45;100892.91;4963081;28;20310;-65
2021/11/07 06:49:58;;;;;;;9.88;0.95;;;;;;;7.00;50.77;100890.50;4966405;28;20027;-64
2021/11/07 06:52:25;;;;;;;12.23;1.73;;;;;;;6.78;50.90;100891.06;4962812;28;20550;-64
2021/11/07 06:54:52;;;;;;;18.83;1.92;;;;;;;6.64;51.17;100878.41;4968190;28;20118;-65
2021/11/07 06:57:18;;;;;;;17.00;1.60;;;;;;;6.93;50.96;100879.41;4962304;28;20720;-64
2021/11/07 06:59:44;;;;;;;18.85;1.73;;;;;;;6.67;51.42;100880.91;4966676;28;20065;-64
2021/11/07 07:02:09;;;;;;;19.02;1.90;;;;;;;7.06;50.69;100895.56;4962912;28;20578;-66
2021/11/07 07:04:35;;;;;;;20.00;1.67;;;;;;;6.67;51.21;100898.25;4965621;28;20042;-64
2021/11/07 07:07:01;;;;;;;14.38;1.60;;;;;;;6.59;51.91;100885.41;4962137;28;20046;-64
2021/11/07 07:09:29;;;;;;;15.82;1.30;;;;;;;6.52;51.98;100894.25;4965597;28;20054;-64
2021/11/07 07:12:11;;;;;;;20.85;2.55;;;;;;;6.59;52.17;100894.97;5043423;23;20474;-67
2021/11/07 07:15:21;;;;;;;19.48;1.33;;;;;;;6.38;52.56;100904.94;4987002;28;20410;-68
2021/11/07 07:20:15;;;;;;;7.63;1.00;;;;;;;6.40;52.55;100903.16;4984464;28;20137;-68
2021/11/07 07:25:45;;;;;;;15.85;1.23;;;;;;;6.78;52.14;100900.59;5020376;28;20033;-68
2021/11/07 07:31:34;;;;;;;6.85;1.88;;;;;;;6.95;51.37;100941.75;5023916;28;20029;-67
2021/11/07 07:33:47;;;;;;;12.65;1.65;;;;;;;6.84;50.74;100914.28;5013231;28;20298;-66
2021/11/07 07:36:13;;;;;;;11.05;2.50;;;;;;;6.84;49.79;100909.09;5024190;28;20056;-66
2021/11/07 07:38:39;;;;;;;14.48;2.53;;;;;;;7.08;49.47;100905.03;5003079;28;20485;-67
2021/11/07 07:41:04;;;;;;;18.05;1.30;;;;;;;6.83;50.76;100912.56;5018668;28;20037;-70
2021/11/07 07:43:31;;;;;;;17.42;2.60;;;;;;;6.94;51.17;100916.66;4968691;28;20046;-69
2021/11/07 07:46:03;;;;;;;13.25;1.70;;;;;;;6.85;51.64;100925.53;4998313;28;20030;-66
2021/11/07 07:48:29;;;;;;;;;;;;;;;6.89;51.95;100922.81;4998976;28;20041;-67
2021/11/07 07:50:55;;;;;;;7.80;1.23;;;;;;;7.90;50.31;100928.94;5001170;28;19913;-67
2021/11/07 07:53:23;;;;;;;11.88;1.00;;;;;;;8.59;48.04;100923.47;5000361;28;20046;-66
2021/11/07 07:55:50;;;;;;;11.75;1.25;;;;;;;9.65;47.45;100923.44;5000314;28;20048;-66
2021/11/07 07:58:16;;;;;;;16.67;1.33;;;;;;;9.35;46.47;100921.00;4998497;28;20125;-66
2021/11/07 08:00:42;;;;;;;13.80;2.25;;;;;;;9.56;47.34;100924.59;4975416;28;20030;-67
2021/11/07 08:03:07;;;;;;;12.20;1.40;;;;;;;9.69;46.88;100934.63;4999541;28;20101;-67
2021/11/07 08:05:33;;;;;;;18.15;2.17;;;;;;;9.84;47.33;100928.06;5000669;28;20038;-66
2021/11/07 08:07:58;;;;;;;22.98;1.55;;;;;;;10.34;44.67;100925.31;4997959;28;20042;-68
2021/11/07 08:10:24;;;;;;;19.13;2.15;;;;;;;10.01;45.10;100933.50;4999373;28;20025;-67
2021/11/07 08:12:49;;;;;;;12.88;1.83;;;;;;;10.98;43.43;100924.56;4996778;28;20574;-67
2021/11/07 08:15:15;;;;;;;21.35;2.53;;;;;;;11.01;42.56;100935.72;4998570;28;20494;-68
2021/11/07 08:17:41;;;;;;;15.77;2.83;;;;;;;10.81;43.17;100933.94;5000641;28;20125;-68
2021/11/07 08:20:09;;;;;;;17.23;3.03;;;;;;;10.37;42.94;100931.28;4982129;28;20026;-68
2021/11/07 08:22:36;;;;;;;15.48;2.40;;;;;;;8.98;45.36;100939.59;4983182;28;20044;-68
2021/11/07 08:25:10;;;;;;;23.75;2.58;;;;;;;9.29;44.63;100957.72;4999095;28;20026;-68
2021/11/07 08:27:37;;;;;;;12.68;0.98;;;;;;;8.85;45.17;100949.59;4997410;28;20662;-67
2021/11/07 08:30:04;;;;;;;13.52;1.17;;;;;;;8.77;45.14;100959.41;4999138;28;20026;-68
2021/11/07 08:32:30;;;;;;;11.25;1.77;;;;;;;8.63;44.98;100945.88;4983179;28;20092;-67
2021/11/07 08:34:55;;;;;;;15.13;1.50;;;;;;;9.08;44.21;100948.00;4999212;28;20052;-68
2021/11/07 08:37:29;;;;;;;9.65;1.02;;;;;;;9.12;42.76;100954.78;4982641;28;20039;-68
2021/11/07 08:39:58;;;;;;;15.10;1.67;;;;;;;9.94;42.99;100955.50;4968643;28;20030;-68
2021/11/07 08:42:40;;;;;;;14.32;1.75;;;;;;;10.79;41.39;100956.66;4984173;28;20492;-68
2021/11/07 09:09:18;;;;;;;18.00;1.30;;;;;;;10.45;41.38;100941.44;5000751;28;20045;-68
2021/11/07 09:11:53;;;;;;;13.20;2.55;;;;;;;10.94;41.52;100944.75;5001678;28;20030;-68
2021/11/07 09:14:23;;;;;;;16.48;1.77;;;;;;;11.60;40.51;100941.16;4998371;28;20041;-68
2021/11/07 09:16:50;;;;;;;24.77;4.32;;;;;;;11.50;41.25;100942.47;5001382;28;20573;-68
2021/11/07 09:19:20;;;;;;;20.88;2.58;;;;;;;11.76;40.10;100946.59;5000321;28;20045;-68
2021/11/07 09:21:49;;;;;;;14.40;1.83;;;;;;;11.85;39.68;100938.34;4975150;28;20600;-68
2021/11/07 09:27:21;;;;;;;19.52;1.90;;;;;;;10.77;40.41;100936.69;4969769;28;20973;-67
2021/11/07 09:30:24;;;;;;;21.15;2.03;;;;;;;10.84;40.72;100943.44;5001691;28;20072;-68
2021/11/07 09:32:59;;;;;;;28.52;3.28;;;;;;;11.31;38.54;100947.59;4979684;28;20053;-68
2021/11/07 09:38:07;;;;;;;12.32;2.55;;;;;;;11.28;38.12;100945.97;4997833;28;20042;-68
2021/11/07 09:40:37;;;;;;;17.77;2.75;;;;;;;10.96;39.19;100955.16;4998304;28;20107;-68
2021/11/07 09:43:24;;;;;;;14.50;2.13;;;;;;;11.27;38.65;100957.38;4984954;28;20093;-68
2021/11/07 09:46:07;;;;;;;17.90;2.28;;;;;;;10.95;39.03;100956.94;4986042;28;20682;-68
2021/11/07 09:48:36;;;;;;;18.48;2.30;;;;;;;10.58;39.95;100971.41;5000200;28;20042;-68
2021/11/07 09:51:04;;;;;;;8.48;1.25;;;;;;;10.02;40.19;100963.94;4999777;28;20113;-68
2021/11/07 09:53:30;;;;;;;12.80;1.38;;;;;;;9.45;40.16;100962.41;4999816;28;20050;-68
2021/11/07 09:55:56;;;;;;;10.10;0.88;;;;;;;10.05;39.67;100960.34;5000753;28;20092;-68
2021/11/07 09:58:22;;;;;;;11.52;1.60;;;;;;;9.56;39.82;100957.69;4997038;28;20754;-68
2021/11/07 10:00:51;;;;;;;16.05;1.60;;;;;;;9.54;39.84;100952.53;4986872;28;20196;-68
2021/11/07 10:03:18;;;;;;;13.75;1.85;;;;;;;9.69;40.98;100966.78;4985526;28;20053;-69
2021/11/07 10:05:47;;;;;;;8.65;1.63;;;;;;;8.91;42.12;100956.34;4985234;28;20041;-68
2021/11/07 10:08:15;;;;;;;11.68;2.13;;;;;;;9.42;41.92;100959.91;5000413;28;20180;-67
2021/11/07 10:11:06;;;;;;;17.63;3.08;;;;;;;9.50;42.33;100955.28;4999765;28;20746;-68
2021/11/07 10:13:30;;;;;;;18.92;2.17;;;;;;;9.53;42.27;100945.59;4997289;28;20056;-70
2021/11/07 10:16:04;;;;;;;17.77;1.70;;;;;;;9.88;41.79;100960.94;4996903;28;20026;-69
2021/11/07 10:21:24;;;;;;;18.63;2.80;;;;;;;11.28;39.04;100948.59;4996950;28;20104;-68
2021/11/07 10:24:16;;;;;;;6.57;1.10;;;;;;;10.56;40.26;100948.84;4997017;28;20057;-68
2021/11/07 10:26:46;;;;;;;25.55;1.83;;;;;;;10.39;40.40;100942.53;4981332;28;20036;-69
2021/11/07 10:29:34;;;;;;;14.18;1.70;;;;;;;11.17;39.40;100935.97;5017787;28;20069;-68
2021/11/07 10:32:07;;;;;;;16.25;1.48;;;;;;;10.61;39.55;100945.13;5018691;28;20057;-68
2021/11/07 10:43:12;;;;;;;10.52;1.00;;;;;;;10.82;39.49;100935.66;5015772;28;20052;-68
2021/11/07 10:54:23;;;;;;;21.25;2.80;;;;;;;11.74;38.33;100928.31;5015988;28;20046;-68
2021/11/07 10:57:17;;;;;;;12.80;2.08;;;;;;;12.02;37.45;100934.94;5026743;28;20031;-69
2021/11/07 11:00:14;;;;;;;12.52;2.08;;;;;;;10.46;42.37;100932.69;5016937;28;20040;-68
2021/11/07 11:02:39;;;;;;;12.45;2.17;;;;;;;9.51;44.41;100926.53;5016322;28;20929;-70
2021/11/07 11:05:09;;;;;;;20.90;2.22;;;;;;;10.77;42.66;100944.53;5018611;28;20544;-68
2021/11/07 11:07:53;;;;;;;8.82;1.00;;;;;;;10.01;41.34;100946.53;5015219;28;20049;-68
2021/11/07 11:10:27;;;;;;;9.32;0.93;;;;;;;10.46;38.73;100937.91;5015856;28;20059;-67
2021/11/07 11:13:10;;;;;;;11.23;1.45;;;;;;;11.10;38.74;100933.66;5018056;28;20387;-68
2021/11/07 11:15:50;;;;;;;17.05;2.30;;;;;;;11.79;37.67;100923.75;5017158;28;20041;-67
2021/11/07 11:21:20;;;;;;;13.85;1.23;;;;;;;11.01;37.46;100925.28;5019180;28;20025;-67
2021/11/07 11:26:44;;;;;;;10.65;1.38;;;;;;;10.21;43.44;100970.19;5017649;28;20033;-67
2021/11/07 11:32:08;;;;;;;11.20;1.30;;;;;;;8.75;46.83;100956.81;5014481;28;20410;-66
2021/11/07 11:34:39;;;;;;;10.45;1.00;;;;;;;8.33;46.54;100940.72;5016994;28;20045;-67
2021/11/07 11:37:20;;;;;;;9.52;1.17;;;;;;;8.20;45.36;100945.41;5011296;28;20104;-67
2021/11/07 11:39:54;;;;;;;9.13;0.70;;;;;;;8.73;45.06;100952.56;5016409;28;20479;-67
2021/11/07 11:42:26;;;;;;;13.27;0.85;;;;;;;8.45;44.85;100945.56;5014917;28;20073;-68
2021/11/07 11:44:54;;;;;;;6.05;1.02;;;;;;;9.04;43.87;100942.03;5012472;28;20037;-67
2021/11/07 11:47:48;;;;;;;5.28;0.90;;;;;;;9.44;42.94;100939.84;5016796;28;20050;-68
2021/11/07 11:58:46;;;;;;;8.85;0.98;;;;;;;9.44;41.21;100945.06;4992597;28;20052;-69
2021/11/07 12:01:19;;;;;;;4.93;0.60;;;;;;;9.65;40.59;100948.69;5016041;28;20324;-68
2021/11/07 12:04:04;;;;;;;8.85;0.50;;;;;;;9.75;41.07;100944.84;5014621;28;20045;-69
2021/11/07 12:06:36;;;;;;;6.82;0.55;;;;;;;9.60;40.78;100946.25;5023234;28;20034;-68
2021/11/07 12:14:32;;;;;;;11.88;1.33;;;;;;;9.23;41.66;100939.69;5015930;28;20049;-68
2021/11/07 12:17:05;;;;;;;11.10;1.38;;;;;;;9.89;41.17;100941.78;5017010;28;20034;-68
2021/11/07 12:19:43;;;;;;;12.38;1.75;;;;;;;10.16;41.39;100930.31;5014868;28;20087;-68
2021/11/07 12:22:25;;;;;;;11.18;0.68;;;;;;;10.01;41.66;100933.50;5016203;28;20037;-68
2021/11/07 12:24:51;;;;;;;11.05;1.27;;;;;;;9.95;42.21;100936.34;5017884;28;20112;-68
2021/11/07 12:27:29;;;;;;;17.63;1.83;;;;;;;9.77;41.83;100928.22;5013312;28;20057;-68
2021/11/07 12:30:23;;;;;;;17.15;1.23;;;;;;;9.53;42.19;100934.31;5014503;28;20499;-68
2021/11/07 12:33:16;;;;;;;13.55;2.45;;;;;;;9.67;43.13;100936.44;4993510;28;20554;-69
2021/11/07 12:35:49;;;;;;;12.85;1.98;;;;;;;9.24;43.57;100932.69;5015562;28;20485;-68
2021/11/07 12:41:06;;;;;;;14.20;1.13;;;;;;;11.02;40.46;100919.16;5015348;28;20124;-68
2021/11/07 12:43:37;;;;;;;29.13;2.55;;;;;;;11.24;40.47;100931.31;5015014;28;20387;-68
2021/11/07 12:46:24;;;;;;;17.63;2.00;;;;;;;10.95;39.63;100933.41;5017099;28;20414;-68
2021/11/07 12:48:54;;;;;;;13.88;1.05;;;;;;;11.13;39.53;100928.28;5029490;28;20045;-68
2021/11/07 12:51:30;;;;;;;28.92;1.75;;;;;;;10.19;40.86;100925.00;5013900;28;20029;-69
2021/11/07 12:54:13;;;;;;;21.30;2.38;;;;;;;10.19;41.85;100925.00;5017345;28;20504;-68
2021/11/07 12:56:56;;;;;;;16.75;1.80;;;;;;;10.39;41.30;100924.25;5017004;28;20040;-68
2021/11/07 12:59:34;;;;;;;14.48;1.33;;;;;;;10.72;40.77;100923.81;5018281;28;20045;-67
2021/11/07 13:02:06;;;;;;;13.65;1.25;;;;;;;11.20;39.52;100929.78;5017891;28;20346;-69
2021/11/07 13:04:40;;;;;;;12.70;1.35;;;;;;;10.78;39.55;100923.56;5018286;28;20473;-68
2021/11/07 13:07:07;;;;;;;7.05;1.05;;;;;;;10.25;38.50;100933.50;5018463;28;20514;-68
2021/11/07 13:09:36;;;;;;;15.35;1.85;;;;;;;9.89;39.42;100940.00;5016527;28;20045;-68
2021/11/07 13:12:18;;;;;;;10.60;1.27;;;;;;;9.71;40.09;100948.47;5017747;28;20037;-69
2021/11/07 13:14:58;;;;;;;8.38;1.20;;;;;;;9.81;39.77;100939.44;5019559;28;20041;-68
2021/11/07 13:17:45;;;;;;;9.18;1.27;;;;;;;10.08;39.64;100958.50;5032610;28;20037;-68
2021/11/07 13:20:41;;;;;;;7.68;1.60;;;;;;;8.63;46.77;100983.25;5018309;28;20036;-68
2021/11/07 13:25:49;;;;;;;10.10;0.80;;;;;;;8.39;47.97;100960.53;5025353;22;20506;-68
2021/11/07 13:28:23;;;;;;;8.68;1.15;;;;;;;8.50;47.67;100954.09;5017466;28;20052;-68
2021/11/07 13:31:16;;;;;;;12.27;1.88;;;;;;;8.47;47.18;100972.44;5020704;28;20049;-68
2021/11/07 13:33:42;;;;;;;14.20;1.38;;;;;;;8.63;47.44;100966.72;4997972;28;20153;-67